Time;durP1;ratioP1;P1;durP2;ratioP2;P2;SDS_P1;SDS_P2;PMS_P1;PMS_P2;Temp;Humidity;BMP_temperature;BMP_pressure;BME280_temperature;BME280_humidity;BME280_pressure;Samples;Min_cycle;Max_cycle;Signal;HPM_P1;HPM_P2
2021/04/04 05:02:52;;;;;;;0.20;0.20;;;;;;;;;;5066864;27;20454;-53
2021/04/04 05:05:18;;;;;;;0.20;0.20;;;;;;;;;;5082409;28;20028;-59
2021/04/04 05:07:45;;;;;;;0.30;0.30;;;;;;;;;;5075905;28;20042;-50
2021/04/04 05:10:12;;;;;;;0.13;0.13;;;;;;;;;;5073344;28;20021;-53
2021/04/04 05:13:01;;;;;;;0.90;0.90;;;;;;;;;;5060340;28;20029;-54
2021/04/04 05:15:28;;;;;;;1.85;0.93;;;;;;;;;;5058077;28;20090;-54
2021/04/04 05:17:54;;;;;;;0.20;0.20;;;;;;;;;;5049031;28;20082;-50
2021/04/04 05:20:21;;;;;;;0.25;0.25;;;;;;;;;;5055902;28;20445;-53
2021/04/04 05:22:47;;;;;;;0.47;0.47;;;;;;;;;;5067110;28;20020;-52
2021/04/04 05:25:13;;;;;;;0.63;0.63;;;;;;;;;;5069216;28;20017;-54
2021/04/04 05:27:39;;;;;;;0.15;0.15;;;;;;;;;;5067811;28;20027;-54
2021/04/04 05:30:13;;;;;;;0.55;0.55;;;;;;;;;;5064900;28;20029;-56
2021/04/04 05:32:43;;;;;;;1.02;0.93;;;;;;;;;;5067613;28;20044;-56
2021/04/04 05:35:13;;;;;;;0.15;0.15;;;;;;;;;;5069939;28;20040;-56
2021/04/04 05:37:41;;;;;;;0.17;0.17;;;;;;;;;;5067206;28;20037;-54
2021/04/04 05:40:08;;;;;;;1.98;1.88;;;;;;;;;;5067967;28;20021;-53
2021/04/04 05:42:36;;;;;;;1.60;0.50;;;;;;;;;;5067638;28;20047;-52
2021/04/04 05:45:03;;;;;;;0.10;0.10;;;;;;;;;;5064061;28;20087;-51
2021/04/04 05:48:03;;;;;;;0.52;0.52;;;;;;;;;;5067262;28;20476;-53
2021/04/04 05:50:48;;;;;;;0.13;0.13;;;;;;;;;;5056160;28;20040;-52
2021/04/04 05:53:28;;;;;;;0.20;0.20;;;;;;;;;;5061527;28;20033;-52
2021/04/04 05:55:54;;;;;;;1.33;1.27;;;;;;;;;;5048000;28;20033;-53
2021/04/04 05:58:26;;;;;;;0.20;0.20;;;;;;;;;;5047506;28;20035;-54
2021/04/04 06:00:54;;;;;;;0.30;0.30;;;;;;;;;;5050813;28;20454;-51
2021/04/04 06:03:40;;;;;;;0.10;0.10;;;;;;;;;;5025596;28;20102;-54
2021/04/04 06:06:06;;;;;;;;;;;;;;;;;;5037729;28;20033;-53
2021/04/04 06:08:32;;;;;;;;;;;;;;;;;;5031788;28;19905;-54
2021/04/04 06:10:58;;;;;;;;;;;;;;;;;;5030201;28;19917;-53
2021/04/04 06:13:24;;;;;;;0.10;0.10;;;;;;;;;;5012585;28;19928;-54
2021/04/04 06:15:56;;;;;;;1.00;1.00;;;;;;;;;;5029183;28;20048;-56
2021/04/04 06:18:26;;;;;;;0.20;0.20;;;;;;;;;;5029655;28;20380;-54
2021/04/04 06:20:59;;;;;;;2.00;1.08;;;;;;;;;;5028295;28;20041;-52
2021/04/04 06:23:25;;;;;;;0.20;0.20;;;;;;;;;;5026567;28;20065;-51
2021/04/04 06:25:54;;;;;;;0.20;0.20;;;;;;;;;;5029879;28;20057;-54
2021/04/04 06:28:27;;;;;;;15.55;1.23;;;;;;;;;;5048311;28;20029;-51
2021/04/04 06:30:58;;;;;;;7.43;1.55;;;;;;;;;;5049567;28;20464;-49
2021/04/04 06:33:24;;;;;;;3.83;0.95;;;;;;;;;;5049587;28;20040;-49
2021/04/04 06:35:50;;;;;;;0.55;0.55;;;;;;;;;;5050074;28;20499;-51
2021/04/04 06:38:35;;;;;;;3.28;1.73;;;;;;;;;;5052506;28;20035;-52
2021/04/04 06:41:13;;;;;;;0.27;0.27;;;;;;;;;;5052593;28;20043;-52
2021/04/04 06:43:42;;;;;;;0.20;0.20;;;;;;;;;;5049459;28;20040;-50
2021/04/04 06:46:11;;;;;;;0.38;0.38;;;;;;;;;;5049209;28;20063;-52
2021/04/04 06:49:00;;;;;;;0.10;0.10;;;;;;;;;;5048587;28;20482;-50
2021/04/04 06:51:27;;;;;;;0.68;0.68;;;;;;;;;;5047699;28;20068;-50
2021/04/04 06:54:05;;;;;;;0.40;0.40;;;;;;;;;;5049394;28;20029;-50
2021/04/04 06:56:44;;;;;;;1.13;0.80;;;;;;;;;;5048297;28;20021;-55
2021/04/04 06:59:26;;;;;;;0.10;0.10;;;;;;;;;;5051485;28;20124;-56
2021/04/04 07:01:57;;;;;;;2.97;2.10;;;;;;;;;;5050291;28;20090;-51
2021/04/04 07:04:26;;;;;;;0.90;0.90;;;;;;;;;;5049029;28;20091;-53
2021/04/04 07:07:03;;;;;;;0.20;0.20;;;;;;;;;;5049376;28;20029;-54
2021/04/04 07:09:44;;;;;;;0.82;0.82;;;;;;;;;;5049374;28;20091;-53
2021/04/04 07:12:29;;;;;;;0.13;0.13;;;;;;;;;;5048276;28;20025;-52
2021/04/04 07:15:20;;;;;;;1.90;0.70;;;;;;;;;;5032771;28;20036;-53
2021/04/04 07:18:04;;;;;;;0.63;0.50;;;;;;;;;;5048688;28;20659;-53
2021/04/04 07:20:43;;;;;;;0.55;0.55;;;;;;;;;;5048180;28;20056;-52
2021/04/04 07:23:21;;;;;;;0.95;0.50;;;;;;;;;;5049082;28;20504;-53
2021/04/04 07:26:03;;;;;;;4.13;1.67;;;;;;;;;;5048297;28;20508;-54
2021/04/04 07:28:47;;;;;;;0.20;0.20;;;;;;;;;;5048396;28;20402;-52
2021/04/04 07:31:15;;;;;;;0.43;0.43;;;;;;;;;;5047870;28;20588;-52
2021/04/04 07:33:51;;;;;;;0.10;0.10;;;;;;;;;;5047901;28;20060;-54
2021/04/04 07:36:20;;;;;;;0.65;0.65;;;;;;;;;;5048212;28;20032;-53
2021/04/04 07:38:51;;;;;;;0.40;0.40;;;;;;;;;;5049371;28;20052;-53
2021/04/04 07:41:21;;;;;;;0.40;0.40;;;;;;;;;;5051370;28;20095;-54
2021/04/04 07:44:17;;;;;;;0.15;0.15;;;;;;;;;;5040827;28;20025;-54
2021/04/04 07:46:54;;;;;;;0.13;0.13;;;;;;;;;;5044824;28;20402;-56
2021/04/04 07:49:31;;;;;;;0.60;0.60;;;;;;;;;;5048489;28;20116;-54
2021/04/04 07:51:58;;;;;;;1.35;0.98;;;;;;;;;;5049532;28;20477;-56
2021/04/04 07:54:30;;;;;;;0.15;0.15;;;;;;;;;;5048799;28;20082;-52
2021/04/04 07:57:15;;;;;;;1.30;1.25;;;;;;;;;;5032966;28;20021;-54
2021/04/04 07:59:48;;;;;;;2.22;2.13;;;;;;;;;;5048548;28;20025;-51
2021/04/04 08:02:20;;;;;;;8.07;6.38;;;;;;;;;;5047483;28;20132;-51
2021/04/04 08:04:49;;;;;;;1.83;1.73;;;;;;;;;;5046570;28;20025;-52
2021/04/04 08:07:18;;;;;;;0.30;0.30;;;;;;;;;;5049810;28;20037;-53
2021/04/04 08:09:48;;;;;;;0.10;0.10;;;;;;;;;;5046614;28;20090;-50
2021/04/04 08:12:34;;;;;;;0.10;0.10;;;;;;;;;;5049373;28;20033;-55
2021/04/04 08:15:06;;;;;;;0.10;0.10;;;;;;;;;;5046739;28;20494;-56
2021/04/04 08:17:34;;;;;;;0.10;0.10;;;;;;;;;;5042824;28;20036;-54
2021/04/04 08:20:19;;;;;;;0.10;0.10;;;;;;;;;;5049366;28;20115;-52
2021/04/04 08:22:48;;;;;;;0.20;0.20;;;;;;;;;;5047413;28;20036;-52
2021/04/04 08:25:17;;;;;;;0.65;0.65;;;;;;;;;;5042875;28;20071;-50
2021/04/04 08:27:47;;;;;;;0.65;0.65;;;;;;;;;;5048344;28;20079;-56
2021/04/04 08:30:19;;;;;;;6.72;1.38;;;;;;;;;;5047579;28;20029;-53
2021/04/04 08:32:51;;;;;;;0.63;0.63;;;;;;;;;;5049413;28;20037;-53
2021/04/04 08:35:28;;;;;;;0.10;0.10;;;;;;;;;;5049540;28;20120;-52
2021/04/04 08:37:56;;;;;;;0.10;0.10;;;;;;;;;;5047542;28;20104;-53
2021/04/04 08:40:23;;;;;;;0.40;0.40;;;;;;;;;;5048461;28;20074;-53
2021/04/04 08:42:50;;;;;;;3.35;1.60;;;;;;;;;;5048532;28;21710;-51
2021/04/04 08:45:16;;;;;;;2.03;0.82;;;;;;;;;;5045787;28;20786;-51
2021/04/04 08:47:43;;;;;;;13.38;0.68;;;;;;;;;;5048039;28;20060;-53
2021/04/04 08:50:17;;;;;;;4.85;0.77;;;;;;;;;;5050338;28;20393;-53
2021/04/04 08:53:00;;;;;;;0.40;0.40;;;;;;;;;;5047292;28;20124;-55
2021/04/04 08:55:27;;;;;;;0.20;0.20;;;;;;;;;;5047292;28;20029;-53
2021/04/04 08:57:54;;;;;;;0.20;0.20;;;;;;;;;;5047605;28;20025;-55
2021/04/04 09:00:22;;;;;;;8.05;1.65;;;;;;;;;;5047708;28;20025;-56
2021/04/04 09:02:54;;;;;;;1.80;1.08;;;;;;;;;;5033939;28;20416;-54
2021/04/04 09:05:25;;;;;;;0.40;0.40;;;;;;;;;;5033699;28;20032;-55
2021/04/04 09:07:52;;;;;;;0.50;0.50;;;;;;;;;;5029472;28;20489;-53
2021/04/04 09:10:19;;;;;;;0.32;0.32;;;;;;;;;;5038314;28;20029;-56
2021/04/04 09:12:45;;;;;;;0.20;0.20;;;;;;;;;;5040807;28;20037;-53
2021/04/04 09:15:12;;;;;;;0.10;0.10;;;;;;;;;;5039987;28;20031;-52
2021/04/04 09:17:44;;;;;;;2.75;0.45;;;;;;;;;;5041364;28;20501;-53
2021/04/04 09:20:11;;;;;;;0.20;0.20;;;;;;;;;;5043715;28;20510;-56
2021/04/04 09:22:38;;;;;;;0.50;0.50;;;;;;;;;;5031982;28;20406;-55
2021/04/04 09:25:08;;;;;;;0.10;0.10;;;;;;;;;;5047931;28;20028;-52
2021/04/04 09:27:36;;;;;;;0.10;0.10;;;;;;;;;;5043382;28;20032;-54
2021/04/04 09:30:02;;;;;;;0.38;0.38;;;;;;;;;;5045737;28;20111;-53
2021/04/04 09:32:42;;;;;;;0.30;0.30;;;;;;;;;;5049786;28;20480;-55
2021/04/04 09:35:13;;;;;;;1.30;1.00;;;;;;;;;;5055729;28;20032;-54
2021/04/04 09:37:39;;;;;;;0.15;0.15;;;;;;;;;;5034984;28;20033;-51
2021/04/04 09:40:06;;;;;;;0.10;0.10;;;;;;;;;;5042143;28;20276;-55
2021/04/04 09:42:32;;;;;;;0.10;0.10;;;;;;;;;;5052394;28;20540;-51
2021/04/04 09:45:16;;;;;;;0.10;0.10;;;;;;;;;;5048549;28;20440;-55
2021/04/04 09:47:43;;;;;;;4.07;1.08;;;;;;;;;;5051040;28;20029;-56
2021/04/04 09:50:21;;;;;;;1.27;0.70;;;;;;;;;;5054509;28;20032;-53
2021/04/04 09:52:47;;;;;;;1.65;1.35;;;;;;;;;;5050795;28;20064;-53
2021/04/04 09:55:15;;;;;;;0.98;0.98;;;;;;;;;;5034250;28;20034;-54
2021/04/04 09:57:51;;;;;;;0.10;0.10;;;;;;;;;;5045042;28;20036;-54
2021/04/04 10:00:23;;;;;;;4.68;1.75;;;;;;;;;;5041117;28;20390;-55
2021/04/04 10:02:51;;;;;;;0.55;0.30;;;;;;;;;;5040374;28;20060;-54
2021/04/04 10:05:28;;;;;;;0.75;0.73;;;;;;;;;;5051196;28;20096;-51
2021/04/04 10:07:54;;;;;;;0.47;0.30;;;;;;;;;;5051811;28;20075;-52
2021/04/04 10:10:30;;;;;;;0.10;0.10;;;;;;;;;;5048697;28;20021;-57
2021/04/04 10:12:57;;;;;;;0.57;0.57;;;;;;;;;;5049143;28;20025;-49
2021/04/04 10:15:23;;;;;;;0.45;0.45;;;;;;;;;;5051135;28;20548;-53
2021/04/04 10:17:53;;;;;;;1.50;1.05;;;;;;;;;;5050238;28;20099;-53
2021/04/04 10:20:29;;;;;;;9.75;5.20;;;;;;;;;;5052411;28;20036;-51
2021/04/04 10:22:56;;;;;;;0.10;0.10;;;;;;;;;;5051957;28;20124;-54
2021/04/04 10:25:22;;;;;;;2.78;2.58;;;;;;;;;;5051609;28;20044;-55
2021/04/04 10:27:56;;;;;;;2.75;2.15;;;;;;;;;;5049416;28;20029;-51
2021/04/04 10:30:27;;;;;;;0.20;0.20;;;;;;;;;;5052599;28;20067;-53
2021/04/04 10:32:53;;;;;;;0.15;0.15;;;;;;;;;;5050874;28;20057;-52
2021/04/04 10:35:31;;;;;;;0.30;0.22;;;;;;;;;;5053267;28;20056;-54
2021/04/04 10:38:05;;;;;;;3.40;0.88;;;;;;;;;;5051087;28;20060;-50
2021/04/04 10:40:50;;;;;;;9.48;1.55;;;;;;;;;;5049827;28;20112;-54
2021/04/04 10:43:17;;;;;;;4.55;1.08;;;;;;;;;;5049950;28;20037;-53
2021/04/04 10:45:59;;;;;;;1.00;0.52;;;;;;;;;;5048768;28;20013;-51
2021/04/04 10:48:25;;;;;;;0.10;0.10;;;;;;;;;;5037606;28;20036;-54
2021/04/04 10:50:52;;;;;;;0.43;0.43;;;;;;;;;;5050806;28;20029;-54
2021/04/04 10:53:19;;;;;;;0.10;0.10;;;;;;;;;;5051282;28;20508;-54
2021/04/04 10:55:46;;;;;;;1.70;1.60;;;;;;;;;;5049159;28;20083;-54
2021/04/04 10:58:14;;;;;;;0.20;0.20;;;;;;;;;;5049717;28;20019;-52
2021/04/04 11:00:41;;;;;;;0.10;0.10;;;;;;;;;;5049596;28;20071;-51
2021/04/04 11:03:08;;;;;;;3.55;2.42;;;;;;;;;;5049598;28;20025;-54
2021/04/04 11:05:34;;;;;;;11.80;0.73;;;;;;;;;;5051124;28;20033;-56
2021/04/04 11:08:01;;;;;;;0.20;0.20;;;;;;;;;;5049363;28;20025;-54
2021/04/04 11:10:27;;;;;;;0.10;0.10;;;;;;;;;;5050997;28;20060;-52
2021/04/04 11:12:53;;;;;;;1.10;1.10;;;;;;;;;;5048352;28;20459;-50
2021/04/04 11:15:20;;;;;;;3.55;1.83;;;;;;;;;;5044938;28;20074;-55
2021/04/04 11:17:47;;;;;;;0.95;0.90;;;;;;;;;;5044356;28;20506;-54
2021/04/04 11:20:16;;;;;;;0.40;0.40;;;;;;;;;;5049670;28;20092;-54
2021/04/04 11:22:42;;;;;;;0.63;0.63;;;;;;;;;;5050630;28;20029;-53
2021/04/04 11:25:11;;;;;;;0.47;0.47;;;;;;;;;;5048525;28;20021;-53
2021/04/04 11:27:39;;;;;;;0.70;0.70;;;;;;;;;;5048991;28;20033;-56
2021/04/04 11:30:06;;;;;;;9.23;1.35;;;;;;;;;;5041937;28;20652;-52
2021/04/04 11:32:32;;;;;;;0.38;0.38;;;;;;;;;;5047647;28;20033;-53
2021/04/04 11:35:03;;;;;;;0.90;0.90;;;;;;;;;;5049380;28;20095;-53
2021/04/04 11:37:29;;;;;;;1.98;1.30;;;;;;;;;;5047594;28;20029;-51
2021/04/04 11:40:11;;;;;;;0.30;0.30;;;;;;;;;;5042877;28;20044;-53
2021/04/04 11:42:38;;;;;;;3.85;1.40;;;;;;;;;;5048609;28;20025;-52
2021/04/04 11:45:04;;;;;;;20.90;1.45;;;;;;;;;;5048402;28;20028;-51
2021/04/04 11:47:30;;;;;;;21.65;3.60;;;;;;;;;;5051508;28;20032;-50
2021/04/04 11:49:57;;;;;;;1.13;0.98;;;;;;;;;;5049125;28;20057;-52
2021/04/04 11:52:23;;;;;;;7.32;1.23;;;;;;;;;;5048950;28;20494;-52
2021/04/04 11:54:52;;;;;;;6.65;1.17;;;;;;;;;;5048284;28;20033;-51
2021/04/04 11:57:20;;;;;;;0.20;0.20;;;;;;;;;;5048559;28;20098;-51
2021/04/04 11:59:48;;;;;;;2.08;0.63;;;;;;;;;;5049855;28;20025;-51
2021/04/04 12:02:16;;;;;;;0.20;0.20;;;;;;;;;;5048203;28;20041;-52
2021/04/04 12:04:49;;;;;;;0.63;0.38;;;;;;;;;;5048410;28;20033;-50
2021/04/04 12:07:16;;;;;;;2.67;1.45;;;;;;;;;;5047823;28;20513;-50
2021/04/04 12:09:46;;;;;;;10.80;1.17;;;;;;;;;;5048316;28;20442;-51
2021/04/04 12:12:13;;;;;;;8.70;1.08;;;;;;;;;;5047966;28;20038;-55
2021/04/04 12:14:52;;;;;;;2.40;0.50;;;;;;;;;;5050599;28;20029;-54
2021/04/04 12:17:20;;;;;;;0.10;0.10;;;;;;;;;;5051137;28;20025;-51
2021/04/04 12:19:46;;;;;;;1.42;1.42;;;;;;;;;;5044565;28;20060;-54
2021/04/04 12:22:13;;;;;;;1.00;0.73;;;;;;;;;;5048590;28;20401;-53
2021/04/04 12:24:47;;;;;;;22.90;4.13;;;;;;;;;;5047721;28;20063;-51
2021/04/04 12:27:14;;;;;;;1.95;0.32;;;;;;;;;;5047586;28;20513;-53
2021/04/04 12:29:41;;;;;;;0.15;0.13;;;;;;;;;;5045405;28;20033;-52
2021/04/04 12:32:08;;;;;;;1.65;0.30;;;;;;;;;;5048925;28;20098;-48
2021/04/04 12:34:41;;;;;;;3.78;1.00;;;;;;;;;;5048168;28;20429;-50
2021/04/04 12:37:26;;;;;;;2.53;0.88;;;;;;;;;;5048305;28;20037;-50
2021/04/04 12:39:54;;;;;;;0.60;0.60;;;;;;;;;;5046363;28;20033;-53
2021/04/04 12:42:21;;;;;;;5.07;0.63;;;;;;;;;;5049035;28;20055;-49
2021/04/04 12:44:49;;;;;;;2.25;1.17;;;;;;;;;;5048987;28;20033;-51
2021/04/04 12:47:20;;;;;;;0.63;0.63;;;;;;;;;;5050764;28;20462;-51
2021/04/04 12:50:04;;;;;;;7.07;0.80;;;;;;;;;;5048818;28;20036;-49
2021/04/04 12:52:54;;;;;;;1.00;1.00;;;;;;;;;;5048081;28;20025;-49
2021/04/04 12:55:20;;;;;;;9.70;1.77;;;;;;;;;;5041623;28;20041;-49
2021/04/04 12:57:47;;;;;;;2.40;1.48;;;;;;;;;;5048832;28;20028;-52
2021/04/04 13:00:14;;;;;;;0.32;0.20;;;;;;;;;;5046597;28;20096;-53
2021/04/04 13:02:40;;;;;;;1.52;1.45;;;;;;;;;;5048288;28;20045;-51
2021/04/04 13:05:06;;;;;;;0.22;0.20;;;;;;;;;;5049451;28;20406;-51
2021/04/04 13:07:32;;;;;;;0.10;0.10;;;;;;;;;;5048214;28;20021;-56
2021/04/04 13:09:58;;;;;;;0.43;0.43;;;;;;;;;;5048279;28;20047;-53
2021/04/04 13:12:24;;;;;;;4.38;2.53;;;;;;;;;;5049012;28;20037;-51
2021/04/04 13:14:50;;;;;;;6.75;1.63;;;;;;;;;;5052793;28;20028;-54
2021/04/04 13:17:17;;;;;;;1.08;0.95;;;;;;;;;;5054219;28;20025;-53
2021/04/04 13:19:43;;;;;;;7.00;1.58;;;;;;;;;;5052259;28;20029;-54
2021/04/04 13:22:09;;;;;;;0.73;0.73;;;;;;;;;;5051174;28;20025;-53
2021/04/04 13:24:35;;;;;;;1.90;0.95;;;;;;;;;;5051543;28;20025;-53
2021/04/04 13:27:01;;;;;;;0.13;0.13;;;;;;;;;;5052522;28;20028;-54
2021/04/04 13:29:38;;;;;;;0.50;0.50;;;;;;;;;;5053844;28;20351;-53
2021/04/04 13:32:04;;;;;;;11.40;0.85;;;;;;;;;;5053545;28;20063;-54
2021/04/04 13:34:39;;;;;;;6.20;0.70;;;;;;;;;;5052245;28;20025;-54
2021/04/04 13:37:05;;;;;;;1.67;1.58;;;;;;;;;;5049132;28;20044;-54
2021/04/04 13:39:33;;;;;;;0.32;0.32;;;;;;;;;;5052075;28;20143;-52
2021/04/04 13:41:59;;;;;;;2.10;1.10;;;;;;;;;;5052417;28;20040;-53
2021/04/04 13:44:26;;;;;;;7.97;0.93;;;;;;;;;;5053729;28;20017;-51
2021/04/04 13:46:52;;;;;;;1.40;1.08;;;;;;;;;;5052325;28;20112;-55
2021/04/04 13:49:22;;;;;;;0.75;0.75;;;;;;;;;;5051281;28;20036;-53
2021/04/04 13:51:50;;;;;;;0.63;0.45;;;;;;;;;;5050702;28;20178;-52
2021/04/04 13:54:17;;;;;;;0.45;0.45;;;;;;;;;;5050819;28;20036;-54
2021/04/04 13:56:44;;;;;;;5.00;0.45;;;;;;;;;;5051474;28;20040;-53
2021/04/04 13:59:13;;;;;;;10.15;1.48;;;;;;;;;;5051175;28;20025;-52
2021/04/04 14:01:44;;;;;;;7.85;0.63;;;;;;;;;;5050077;28;20060;-52
2021/04/04 14:04:13;;;;;;;0.47;0.38;;;;;;;;;;5049675;28;20399;-52
2021/04/04 14:06:42;;;;;;;0.68;0.52;;;;;;;;;;5049102;28;20033;-54
2021/04/04 14:09:09;;;;;;;1.48;1.15;;;;;;;;;;5050373;28;20036;-52
2021/04/04 14:11:36;;;;;;;1.50;1.15;;;;;;;;;;5051050;28;20043;-53
2021/04/04 14:14:03;;;;;;;4.88;0.52;;;;;;;;;;5050764;28;20433;-55
2021/04/04 14:16:29;;;;;;;0.40;0.40;;;;;;;;;;5050787;28;20478;-50
2021/04/04 14:18:55;;;;;;;1.35;1.05;;;;;;;;;;5051872;28;20402;-53
2021/04/04 14:21:21;;;;;;;2.22;0.85;;;;;;;;;;5049680;28;20559;-53
2021/04/04 14:23:47;;;;;;;11.45;0.75;;;;;;;;;;5050053;28;20131;-53
2021/04/04 14:26:14;;;;;;;6.05;1.00;;;;;;;;;;5050925;28;20017;-54
2021/04/04 14:28:40;;;;;;;4.82;2.13;;;;;;;;;;5049965;28;20025;-54
2021/04/04 14:31:06;;;;;;;8.55;0.85;;;;;;;;;;5049826;28;20032;-57
2021/04/04 14:33:33;;;;;;;4.85;1.08;;;;;;;;;;5049698;28;20021;-49
2021/04/04 14:36:00;;;;;;;9.23;0.98;;;;;;;;;;5050103;28;20032;-50
2021/04/04 14:38:26;;;;;;;1.45;0.88;;;;;;;;;;5051823;28;20025;-56
2021/04/04 14:40:53;;;;;;;3.70;2.92;;;;;;;;;;5051508;28;20587;-56
2021/04/04 14:45:55;;;;;;;0.17;0.17;;;;;;;;;;5049978;28;20041;-51
2021/04/04 14:48:21;;;;;;;0.43;0.43;;;;;;;;;;5049150;28;20021;-49
2021/04/04 14:50:48;;;;;;;0.30;0.30;;;;;;;;;;5050967;28;20128;-53
2021/04/04 14:53:15;;;;;;;0.63;0.20;;;;;;;;;;5052129;28;20167;-54
2021/04/04 14:56:01;;;;;;;1.20;0.60;;;;;;;;;;5049650;28;20063;-50
2021/04/04 14:58:28;;;;;;;0.90;0.82;;;;;;;;;;5043842;28;20056;-49
2021/04/04 15:00:55;;;;;;;0.10;0.10;;;;;;;;;;5039113;28;20401;-49
2021/04/04 15:03:21;;;;;;;0.68;0.68;;;;;;;;;;5045837;28;20032;-53
2021/04/04 15:05:48;;;;;;;0.55;0.45;;;;;;;;;;5044610;28;20041;-54
2021/04/04 15:08:14;;;;;;;1.70;0.90;;;;;;;;;;5044354;28;20028;-53
2021/04/04 15:10:40;;;;;;;2.25;0.70;;;;;;;;;;5050178;28;20033;-51
2021/04/04 15:13:07;;;;;;;3.67;1.38;;;;;;;;;;5044177;28;20107;-52
2021/04/04 15:15:34;;;;;;;0.10;0.10;;;;;;;;;;5047033;28;20032;-53
2021/04/04 15:18:00;;;;;;;0.90;0.57;;;;;;;;;;5038582;28;20967;-60
2021/04/04 15:20:27;;;;;;;0.38;0.35;;;;;;;;;;5056654;28;20036;-54
2021/04/04 15:22:53;;;;;;;7.72;1.73;;;;;;;;;;5046713;28;20114;-53
2021/04/04 15:25:21;;;;;;;0.40;0.40;;;;;;;;;;5052764;28;20027;-51
2021/04/04 15:27:47;;;;;;;0.47;0.47;;;;;;;;;;5045865;28;20115;-52
2021/04/04 15:30:15;;;;;;;0.10;0.10;;;;;;;;;;5042597;28;20056;-58
2021/04/04 15:32:42;;;;;;;0.52;0.52;;;;;;;;;;5036514;28;20041;-51
2021/04/04 15:35:09;;;;;;;0.15;0.15;;;;;;;;;;5049372;28;20026;-54
2021/04/04 15:37:35;;;;;;;0.45;0.45;;;;;;;;;;5039717;28;20091;-54
2021/04/04 15:40:01;;;;;;;0.10;0.10;;;;;;;;;;5044801;28;20033;-52
2021/04/04 15:42:27;;;;;;;0.10;0.10;;;;;;;;;;5043773;28;20029;-50
2021/04/04 15:44:54;;;;;;;0.20;0.20;;;;;;;;;;5043949;28;20033;-52
2021/04/04 15:47:20;;;;;;;0.10;0.10;;;;;;;;;;5062856;28;20062;-54
2021/04/04 15:49:46;;;;;;;4.03;0.88;;;;;;;;;;5043007;28;20120;-57
2021/04/04 15:52:12;;;;;;;1.05;0.82;;;;;;;;;;5032028;28;20476;-55
2021/04/04 15:54:38;;;;;;;0.45;0.45;;;;;;;;;;5037188;28;20022;-54
2021/04/04 15:57:04;;;;;;;2.67;0.73;;;;;;;;;;5034126;28;20447;-54
2021/04/04 15:59:30;;;;;;;1.00;0.85;;;;;;;;;;5035691;28;20021;-59
2021/04/04 16:01:56;;;;;;;4.57;1.00;;;;;;;;;;5036271;28;20518;-54
2021/04/04 16:04:22;;;;;;;1.90;1.15;;;;;;;;;;5034715;28;20025;-52
2021/04/04 16:06:49;;;;;;;8.73;1.10;;;;;;;;;;5047061;28;20436;-53
2021/04/04 16:09:15;;;;;;;2.30;1.75;;;;;;;;;;5045680;28;20029;-56
2021/04/04 16:11:42;;;;;;;0.30;0.30;;;;;;;;;;5033078;28;20569;-54
2021/04/04 16:14:09;;;;;;;0.10;0.10;;;;;;;;;;5029474;28;20041;-52
2021/04/04 16:16:35;;;;;;;0.20;0.20;;;;;;;;;;5039035;28;20535;-56
2021/04/04 16:19:02;;;;;;;0.20;0.20;;;;;;;;;;5047082;28;20017;-54
2021/04/04 16:21:28;;;;;;;4.07;0.50;;;;;;;;;;5048623;28;20047;-53
2021/04/04 16:23:54;;;;;;;0.38;0.38;;;;;;;;;;5044626;28;20554;-54
2021/04/04 16:26:21;;;;;;;0.20;0.20;;;;;;;;;;5051811;28;20035;-54
2021/04/04 16:28:48;;;;;;;0.45;0.40;;;;;;;;;;5047917;28;20499;-54
2021/04/04 16:31:16;;;;;;;6.13;0.43;;;;;;;;;;5048425;28;20040;-53
2021/04/04 16:33:42;;;;;;;0.10;0.10;;;;;;;;;;5048080;28;20036;-55
2021/04/04 16:36:08;;;;;;;2.47;1.05;;;;;;;;;;5044041;28;20025;-58
2021/04/04 16:38:34;;;;;;;0.15;0.15;;;;;;;;;;5048534;28;20087;-53
2021/04/04 16:41:00;;;;;;;1.33;1.27;;;;;;;;;;5049547;28;20041;-54
2021/04/04 16:43:26;;;;;;;0.10;0.10;;;;;;;;;;5046675;28;20466;-55
2021/04/04 16:45:52;;;;;;;0.30;0.15;;;;;;;;;;5045635;28;20028;-55
2021/04/04 16:48:20;;;;;;;0.10;0.10;;;;;;;;;;5048602;28;20062;-55
2021/04/04 16:50:46;;;;;;;0.85;0.80;;;;;;;;;;5055008;28;20055;-56
2021/04/04 16:53:12;;;;;;;4.95;1.05;;;;;;;;;;5050637;28;20032;-55
2021/04/04 16:55:39;;;;;;;0.00;0.00;;;;;;;;;;5048368;28;20033;-55
2021/04/04 16:58:05;;;;;;;0.43;0.43;;;;;;;;;;5046042;28;20437;-55
2021/04/04 17:00:31;;;;;;;0.20;0.20;;;;;;;;;;5046026;28;20783;-55
2021/04/04 17:02:57;;;;;;;0.20;0.20;;;;;;;;;;5046296;28;20048;-56
2021/04/04 17:05:24;;;;;;;0.10;0.10;;;;;;;;;;5047766;28;20037;-56
2021/04/04 17:07:50;;;;;;;0.15;0.15;;;;;;;;;;5046762;28;20017;-55
2021/04/04 17:10:17;;;;;;;0.32;0.32;;;;;;;;;;5042245;28;20057;-55
2021/04/04 17:12:43;;;;;;;0.00;0.00;;;;;;;;;;5045185;28;20047;-58
2021/04/04 17:15:10;;;;;;;0.50;0.50;;;;;;;;;;5045948;28;20533;-55
2021/04/04 17:17:37;;;;;;;0.00;0.00;;;;;;;;;;5044666;28;20017;-57
2021/04/04 17:20:06;;;;;;;0.40;0.40;;;;;;;;;;5047607;28;20028;-54
2021/04/04 17:22:32;;;;;;;0.20;0.20;;;;;;;;;;5047387;28;20471;-54
2021/04/04 17:24:58;;;;;;;1.95;1.00;;;;;;;;;;5047338;28;20521;-54
2021/04/04 17:27:24;;;;;;;0.28;0.28;;;;;;;;;;5046820;28;20158;-55
2021/04/04 17:29:51;;;;;;;0.00;0.00;;;;;;;;;;5048403;28;20450;-53
2021/04/04 17:32:17;;;;;;;0.10;0.10;;;;;;;;;;5049289;28;20021;-55
2021/04/04 17:34:43;;;;;;;0.10;0.10;;;;;;;;;;5045593;28;20547;-55
2021/04/04 17:37:09;;;;;;;1.27;0.80;;;;;;;;;;5045957;28;20080;-56
2021/04/04 17:39:38;;;;;;;1.85;1.17;;;;;;;;;;5041496;28;20033;-55
2021/04/04 17:42:04;;;;;;;0.40;0.40;;;;;;;;;;5045831;28;20505;-54
2021/04/04 17:44:30;;;;;;;0.35;0.35;;;;;;;;;;5049685;28;20033;-56
2021/04/04 17:46:58;;;;;;;0.75;0.75;;;;;;;;;;5047644;28;20029;-55
2021/04/04 17:49:24;;;;;;;2.15;0.68;;;;;;;;;;5048026;28;20037;-53
2021/04/04 17:51:50;;;;;;;0.10;0.10;;;;;;;;;;5047318;28;20036;-55
2021/04/04 17:54:16;;;;;;;0.20;0.20;;;;;;;;;;5045071;28;20022;-57
2021/04/04 17:56:43;;;;;;;0.10;0.10;;;;;;;;;;5044174;28;20096;-56
2021/04/04 17:59:09;;;;;;;4.25;0.47;;;;;;;;;;5050586;28;20060;-56
2021/04/04 18:01:35;;;;;;;1.75;1.38;;;;;;;;;;5047397;28;20048;-58
2021/04/04 18:04:02;;;;;;;0.73;0.73;;;;;;;;;;5046650;28;20051;-55
2021/04/04 18:06:34;;;;;;;0.00;0.00;;;;;;;;;;5049288;28;20021;-56
2021/04/04 18:11:27;;;;;;;3.60;0.73;;;;;;;;;;5052826;28;20037;-57
2021/04/04 18:13:53;;;;;;;0.08;0.08;;;;;;;;;;5039189;28;20117;-57
2021/04/04 18:16:20;;;;;;;0.10;0.10;;;;;;;;;;5044839;28;20398;-56
2021/04/04 18:18:46;;;;;;;0.10;0.10;;;;;;;;;;5044563;28;20032;-57
2021/04/04 18:21:14;;;;;;;0.03;0.03;;;;;;;;;;5042060;28;20120;-57
2021/04/04 18:23:42;;;;;;;0.13;0.13;;;;;;;;;;5039143;28;20075;-56
2021/04/04 18:26:11;;;;;;;0.10;0.10;;;;;;;;;;5043387;28;20068;-54
2021/04/04 18:28:38;;;;;;;0.00;0.00;;;;;;;;;;5051975;28;20029;-54
2021/04/04 18:31:05;;;;;;;0.10;0.10;;;;;;;;;;5053944;28;20025;-54
2021/04/04 18:33:32;;;;;;;1.30;1.20;;;;;;;;;;5058674;28;20047;-54
2021/04/04 18:35:59;;;;;;;0.10;0.10;;;;;;;;;;5043066;28;20036;-55
2021/04/04 18:38:25;;;;;;;0.10;0.10;;;;;;;;;;5050457;28;20029;-53
2021/04/04 18:40:51;;;;;;;0.10;0.10;;;;;;;;;;5051102;28;20032;-56
2021/04/04 18:43:18;;;;;;;0.10;0.10;;;;;;;;;;5046214;28;20041;-55
2021/04/04 18:45:44;;;;;;;39.70;8.60;;;;;;;;;;5043333;28;20024;-54
2021/04/04 18:48:11;;;;;;;0.10;0.10;;;;;;;;;;5047485;28;20094;-54
2021/04/04 18:50:37;;;;;;;0.10;0.10;;;;;;;;;;5039769;28;20026;-55
2021/04/04 18:53:04;;;;;;;0.10;0.10;;;;;;;;;;5052921;28;20035;-56
2021/04/04 18:55:30;;;;;;;0.77;0.77;;;;;;;;;;5049348;28;20021;-54
2021/04/04 18:57:57;;;;;;;0.10;0.10;;;;;;;;;;5051157;28;20032;-59
2021/04/04 19:00:24;;;;;;;0.10;0.10;;;;;;;;;;5039976;28;20028;-56
2021/04/04 19:02:50;;;;;;;0.10;0.10;;;;;;;;;;5059296;28;20507;-54
2021/04/04 19:05:17;;;;;;;0.10;0.10;;;;;;;;;;5045916;28;20030;-55
2021/04/04 19:07:44;;;;;;;0.10;0.10;;;;;;;;;;5036139;28;20056;-56
2021/04/04 19:10:11;;;;;;;0.10;0.10;;;;;;;;;;5043512;28;20119;-56
2021/04/04 19:12:37;;;;;;;0.10;0.10;;;;;;;;;;5050234;28;20033;-59
2021/04/04 19:15:04;;;;;;;0.10;0.10;;;;;;;;;;5040878;28;20032;-57
2021/04/04 19:17:31;;;;;;;0.10;0.10;;;;;;;;;;5046829;28;20033;-55
2021/04/04 19:19:58;;;;;;;0.20;0.20;;;;;;;;;;5050193;28;20098;-58
2021/04/04 19:22:24;;;;;;;0.10;0.10;;;;;;;;;;5044534;28;20045;-58
2021/04/04 19:24:50;;;;;;;0.40;0.40;;;;;;;;;;5042190;28;20038;-55
2021/04/04 19:27:17;;;;;;;0.20;0.20;;;;;;;;;;5049019;28;20029;-56
2021/04/04 19:29:43;;;;;;;0.20;0.20;;;;;;;;;;5036116;28;20035;-56
2021/04/04 19:32:10;;;;;;;0.17;0.17;;;;;;;;;;5049994;28;20040;-55
2021/04/04 19:34:36;;;;;;;0.20;0.20;;;;;;;;;;5046448;28;20028;-55
2021/04/04 19:37:03;;;;;;;0.10;0.10;;;;;;;;;;5049834;28;20025;-57
2021/04/04 19:39:29;;;;;;;0.20;0.20;;;;;;;;;;5040182;28;20016;-58
2021/04/04 19:41:55;;;;;;;0.10;0.10;;;;;;;;;;5040289;28;20503;-55
2021/04/04 19:44:21;;;;;;;0.10;0.10;;;;;;;;;;5051938;28;20013;-55
2021/04/04 19:46:48;;;;;;;0.20;0.20;;;;;;;;;;5048221;28;20044;-54
2021/04/04 19:49:14;;;;;;;0.10;0.10;;;;;;;;;;5038516;28;20028;-58
2021/04/04 19:51:41;;;;;;;0.20;0.20;;;;;;;;;;5037869;28;20028;-56
2021/04/04 19:54:07;;;;;;;0.20;0.20;;;;;;;;;;5038772;28;20061;-56
2021/04/04 19:56:34;;;;;;;0.20;0.20;;;;;;;;;;5049372;28;20123;-55
2021/04/04 19:59:00;;;;;;;0.30;0.30;;;;;;;;;;5057837;28;20048;-58
2021/04/04 20:01:26;;;;;;;0.20;0.20;;;;;;;;;;5051842;28;20056;-56